Record high temperature 42.2°C Record low temperature -14.6°C Record high gust 76.2 km/h Record high average 96.8 km/h Record daily rain 63.7 mm Record low windchill -17.5°C Record high barometer 1046.0 hPa Record low barometer 960.0 hPa
Daily high pressure 997.0 hPa Daily low pressure 995.0 hPa Daily low windchill 14.1°C Daily high heat index 16.4°C Daily high gust speed 25.5 kmh SSW Daily high average speed 16.5 kmh SSW

This page is updated from recent data collected by a WMR200 weather station Use the Reload or Refresh facility on your browser to retrieve the latest data.

Status report of weather station: Bienvenue sur la Station Météo de Godarville



Weather report/warning/Metars

Alexandroupoli Airport , Greece (LGAL) 40-51N 025-55E 3M
Jul 31, 2021 - 01:50 AM EDT / 2021.07.31 0550 UTC
Wind: Variable at 3 MPH (3 KT):0
Visibility: greater than 7 mile(s):0
Temperature: 80 F (27 C)
Dew Point: 60 F (16 C)
Relative Humidity: 50%
Pressure (altimeter): 29.77 in. Hg (1008 hPa)
ob: LGAL 310550Z VRB03KT CAVOK 27/16 Q1008
cycle: 6

Charleroi / Gosselies, Belgium (EBCI) 50-28N 004-27E 192M
Jul 31, 2021 - 01:50 AM EDT / 2021.07.31 0550 UTC
Wind: from the SW (220 degrees) at 13 MPH (11 KT):0
Visibility: 1 mile(s):0
Sky conditions: mostly cloudy
Weather: light rain showers; mist
Temperature: 55 F (13 C)
Dew Point: 53 F (12 C)
Relative Humidity: 93%
Pressure (altimeter): 29.83 in. Hg (1010 hPa)
ob: EBCI 310550Z 22011KT 3000 -SHRA BR SCT005 BKN011 13/12 Q1010 BECMG NSW
cycle: 6

Bruxelles National, Belgium (EBBR) 50-54N 004-32E 58M
Jul 31, 2021 - 01:50 AM EDT / 2021.07.31 0550 UTC
Wind: from the WSW (240 degrees) at 14 MPH (12 KT):0
Visibility: greater than 7 mile(s):0
Sky conditions: partly cloudy
Temperature: 60 F (16 C)
Dew Point: 53 F (12 C)
Relative Humidity: 77%
Pressure (altimeter): 29.77 in. Hg (1008 hPa)
ob: EBBR 310550Z 24012KT 9999 SCT013 16/12 Q1008 NOSIG
cycle: 6

Koksijde, Belgium (EBFN) 51-05N 002-39E 9M
Jul 31, 2021 - 02:07 AM EDT / 2021.07.31 0607 UTC
Wind: from the WSW (240 degrees) at 8 MPH (7 KT):0
Visibility: greater than 7 mile(s):0
Sky conditions: mostly cloudy
Temperature: 60 F (16 C)
Dew Point: 57 F (14 C)
Relative Humidity: 87%
Pressure (altimeter): 29.77 in. Hg (1008 hPa)
ob: EBFN 310607Z AUTO 24007KT 9999 BKN014/// 16/14 Q1008 GRN
cycle: 6

Poznan, Poland (EPPO) 52-25N 016-50E 92M
Jul 31, 2021 - 02:00 AM EDT / 2021.07.31 0600 UTC
Wind: from the S (180 degrees) at 6 MPH (5 KT) (direction variable):0
Visibility: greater than 7 mile(s):0
Temperature: 68 F (20 C)
Dew Point: 55 F (13 C)
Relative Humidity: 64%
Pressure (altimeter): 29.71 in. Hg (1006 hPa)
ob: EPPO 310600Z 18005KT 150V210 CAVOK 20/13 Q1006 
cycle: 6



Coucher du Soleil:
21:29:57

Lever de Lune:
00:30:39 31/07/21

Coucher de Lune:
13:18:36 30/07/21

Premier Quartier 17 juillet 2021
Pleine Lune 24 juillet 2021
Dernier Quartier 31 juillet 2021
Nouvelle Lune 8 août 2021
Âge de lune : 21 jours,13 heures,52 minutes,56%
Les heures du jour possible étaient aujourd’hui 15:22



The data is logged at two minute intervals, but there is data recorded every minute.

Use the RELOAD facility on your browser to retrieve the latest data.

Click here for a daily update of the averages/extremes to date for the month
Created by "Weather Display" software version 10.37P at this start time/date 14:44:30 19/07/2021